createdAt,value
2019-05-23T00:02:06.086Z,6.84
2019-05-23T00:07:12.277Z,7.30
2019-05-23T00:12:18.317Z,7.09
2019-05-23T00:17:24.343Z,10.89
2019-05-23T00:22:30.445Z,7.20
2019-05-23T00:27:36.502Z,7.12
2019-05-23T00:32:42.546Z,10.65
2019-05-23T00:37:48.549Z,6.58
2019-05-23T00:42:54.561Z,10.22
2019-05-23T00:48:00.603Z,7.17
2019-05-23T00:53:06.604Z,9.81
2019-05-23T00:58:12.648Z,6.50
2019-05-23T01:03:18.790Z,9.13
2019-05-23T01:08:24.749Z,9.72
2019-05-23T01:13:30.764Z,6.44
2019-05-23T01:18:36.758Z,6.73
2019-05-23T01:23:42.798Z,9.89
2019-05-23T01:28:48.787Z,10.49
2019-05-23T01:33:54.821Z,9.84
2019-05-23T01:39:00.918Z,7.01
2019-05-23T01:44:06.936Z,7.22
2019-05-23T01:49:12.921Z,6.81
2019-05-23T01:54:18.944Z,6.76
2019-05-23T01:59:25.028Z,9.34
2019-05-23T02:04:31.031Z,6.84
2019-05-23T02:09:37.098Z,10.95
2019-05-23T02:14:45.875Z,10.89
2019-05-23T02:19:51.908Z,7.55
2019-05-23T02:24:57.924Z,12.13
2019-05-23T02:30:03.925Z,7.08
2019-05-23T02:35:09.970Z,7.48
2019-05-23T02:40:16.023Z,7.37
2019-05-23T02:45:22.095Z,7.81
2019-05-23T02:50:28.209Z,7.73
2019-05-23T02:55:35.594Z,7.20
2019-05-23T03:00:53.297Z,7.44
2019-05-23T03:05:47.106Z,10.96
2019-05-23T03:10:53.123Z,10.73
2019-05-23T03:15:59.147Z,7.03
2019-05-23T03:21:05.264Z,10.09
2019-05-23T03:26:11.313Z,7.37
2019-05-23T03:31:30.011Z,11.05
2019-05-23T03:36:22.927Z,7.49
2019-05-23T03:41:28.992Z,8.07
2019-05-23T03:46:35.041Z,7.99
2019-05-23T03:51:41.074Z,8.18
2019-05-23T03:56:47.110Z,11.41
2019-05-23T04:01:53.298Z,8.36
2019-05-23T04:06:59.372Z,7.94
2019-05-23T04:12:05.392Z,8.78
2019-05-23T04:17:11.367Z,8.18
2019-05-23T04:22:17.365Z,8.26
2019-05-23T04:27:23.374Z,9.73
2019-05-23T04:32:29.373Z,8.87
2019-05-23T04:37:36.560Z,13.63
2019-05-23T04:42:42.652Z,9.25
2019-05-23T04:47:48.819Z,13.07
2019-05-23T04:52:54.826Z,7.97
2019-05-23T04:58:04.251Z,8.21
2019-05-23T05:03:06.883Z,8.31
2019-05-23T05:08:13.096Z,8.37
2019-05-23T05:13:19.169Z,7.79
2019-05-23T05:18:25.108Z,10.57
2019-05-23T05:23:31.273Z,7.09
2019-05-23T05:28:37.289Z,6.47
2019-05-23T05:33:43.559Z,6.41
2019-05-23T05:38:49.598Z,6.35
2019-05-23T05:43:55.593Z,10.03
2019-05-23T05:49:01.630Z,7.05
2019-05-23T05:54:07.870Z,6.68
2019-05-23T05:59:13.812Z,7.06
2019-05-23T06:04:19.817Z,8.21
2019-05-23T06:09:25.851Z,8.09
2019-05-23T06:14:31.846Z,11.67
2019-05-23T06:19:37.920Z,7.87
2019-05-23T06:24:49.133Z,8.26
2019-05-23T06:29:50.889Z,8.28
2019-05-23T06:34:56.997Z,8.74
2019-05-23T06:40:03.053Z,8.23
2019-05-23T06:45:09.065Z,8.52
2019-05-23T06:50:15.107Z,8.94
2019-05-23T06:55:21.120Z,9.44
2019-05-23T07:00:27.190Z,9.75
2019-05-23T07:05:34.265Z,9.43
2019-05-23T07:10:40.321Z,9.45
2019-05-23T07:15:46.335Z,8.39
2019-05-23T07:20:52.391Z,8.84
2019-05-23T07:25:58.406Z,10.21
2019-05-23T07:31:04.427Z,13.63
2019-05-23T07:36:10.513Z,10.30
2019-05-23T07:41:16.632Z,9.94
2019-05-23T07:46:22.700Z,9.85
2019-05-23T07:51:29.850Z,9.15
2019-05-23T07:56:34.384Z,13.40
2019-05-23T08:01:40.395Z,14.16
2019-05-23T08:06:48.981Z,10.14
2019-05-23T08:11:52.069Z,10.40
2019-05-23T08:16:58.093Z,10.44
2019-05-23T08:22:04.363Z,11.50
2019-05-23T08:27:10.392Z,14.48
2019-05-23T08:32:16.402Z,12.81
2019-05-23T08:37:22.714Z,14.68
2019-05-23T08:42:28.935Z,11.99
2019-05-23T08:47:34.996Z,12.51
2019-05-23T08:52:41.084Z,12.06
2019-05-23T08:57:47.217Z,11.29
2019-05-23T09:02:53.334Z,11.38
2019-05-23T09:07:59.489Z,10.47
2019-05-23T09:13:05.603Z,9.06
2019-05-23T09:18:11.651Z,10.23
2019-05-23T09:23:17.837Z,9.09
2019-05-23T09:28:23.959Z,8.83
2019-05-23T09:33:30.001Z,10.52
2019-05-23T09:38:36.026Z,8.82
2019-05-23T09:43:42.082Z,8.96
2019-05-23T09:48:48.098Z,10.28
2019-05-23T09:53:54.372Z,8.84
2019-05-23T09:59:00.490Z,9.11
2019-05-23T10:04:06.713Z,8.15
2019-05-23T10:09:12.921Z,7.82
2019-05-23T10:14:19.039Z,7.64
2019-05-23T10:19:25.189Z,10.28
2019-05-23T10:24:31.251Z,8.07
2019-05-23T10:29:37.297Z,6.57
2019-05-23T10:34:43.497Z,6.39
2019-05-23T10:39:49.661Z,6.72
2019-05-23T10:44:55.741Z,6.88
2019-05-23T10:50:07.272Z,6.68
2019-05-23T10:55:07.560Z,6.75
2019-05-23T11:00:13.672Z,7.59
2019-05-23T11:05:19.859Z,6.31
2019-05-23T11:10:25.906Z,6.50
2019-05-23T11:15:31.943Z,6.59
2019-05-23T11:20:38.143Z,6.47
2019-05-23T11:25:44.242Z,5.67
2019-05-23T11:30:50.246Z,7.72
2019-05-23T11:35:56.399Z,7.17
2019-05-23T11:41:06.489Z,6.58
2019-05-23T11:46:02.560Z,5.35
2019-05-23T11:51:08.567Z,5.37
2019-05-23T11:56:14.612Z,6.01
2019-05-23T12:01:21.430Z,5.45
2019-05-23T12:06:26.661Z,5.16
2019-05-23T12:11:36.402Z,4.90
2019-05-23T12:16:37.486Z,5.13
2019-05-23T12:21:43.501Z,4.53
2019-05-23T12:26:49.630Z,4.88
2019-05-23T12:31:55.729Z,4.35
2019-05-23T12:37:18.158Z,5.86
2019-05-23T12:42:07.426Z,4.15
2019-05-23T12:47:13.449Z,3.67
2019-05-23T12:52:19.468Z,3.76
2019-05-23T12:57:25.504Z,3.98
2019-05-23T13:02:31.545Z,3.65
2019-05-23T13:07:37.614Z,3.72
2019-05-23T13:12:43.710Z,3.57
2019-05-23T13:17:49.828Z,4.11
2019-05-23T13:22:55.997Z,3.24
2019-05-23T13:28:02.074Z,2.93
2019-05-23T13:33:08.260Z,3.79
2019-05-23T13:38:14.268Z,3.12
2019-05-23T13:43:20.288Z,2.93
2019-05-23T13:48:28.260Z,3.11
2019-05-23T13:53:32.064Z,2.82
2019-05-23T13:58:38.161Z,2.87
2019-05-23T14:03:44.490Z,2.80
2019-05-23T14:08:50.707Z,2.77
2019-05-23T14:14:00.209Z,3.19
2019-05-23T14:19:02.557Z,2.83
2019-05-23T14:24:08.587Z,2.71
2019-05-23T14:29:14.753Z,2.61
2019-05-23T14:34:20.886Z,2.68
2019-05-23T14:39:26.934Z,2.74
2019-05-23T14:44:32.939Z,2.48
2019-05-23T14:49:39.134Z,2.60
2019-05-23T14:54:45.215Z,2.82
2019-05-23T14:59:51.332Z,2.71
2019-05-23T15:04:57.383Z,2.44
2019-05-23T15:10:03.489Z,2.53
2019-05-23T15:15:09.544Z,2.55
2019-05-23T15:20:15.608Z,2.37
2019-05-23T15:25:21.710Z,2.44
2019-05-23T15:30:28.285Z,2.37
2019-05-23T15:35:34.329Z,2.71
2019-05-23T15:40:40.362Z,2.55
2019-05-23T15:45:46.420Z,2.38
2019-05-23T15:50:52.606Z,2.85
2019-05-23T15:55:58.637Z,3.25
2019-05-23T16:01:04.830Z,2.68
2019-05-23T16:06:10.772Z,2.18
2019-05-23T16:11:17.766Z,2.43
2019-05-23T16:16:22.566Z,2.83
2019-05-23T16:21:28.631Z,2.68
2019-05-23T16:26:34.650Z,2.45
2019-05-23T16:31:40.790Z,2.22
2019-05-23T16:36:46.872Z,2.14
2019-05-23T16:41:52.893Z,2.29
2019-05-23T16:46:58.944Z,2.37
2019-05-23T16:52:05.303Z,2.12
2019-05-23T16:57:11.197Z,2.58
2019-05-23T17:02:17.215Z,2.57
2019-05-23T17:07:23.287Z,2.40
2019-05-23T17:12:29.672Z,2.35
2019-05-23T17:18:00.124Z,1.94
2019-05-23T17:22:41.460Z,2.70
2019-05-23T17:27:47.612Z,2.07
2019-05-23T17:32:53.606Z,2.24
2019-05-23T17:37:59.654Z,2.08
2019-05-23T17:43:05.810Z,2.02
2019-05-23T17:48:11.823Z,2.13
2019-05-23T17:53:17.900Z,2.07
2019-05-23T17:58:23.985Z,2.50
2019-05-23T18:03:30.044Z,2.05
2019-05-23T18:08:36.094Z,2.40
2019-05-23T18:13:42.401Z,2.23
2019-05-23T18:18:48.501Z,2.38
2019-05-23T18:23:54.561Z,2.04
2019-05-23T18:29:00.703Z,2.15
2019-05-23T18:34:06.746Z,2.12
2019-05-23T18:39:12.792Z,1.85
2019-05-23T18:44:18.830Z,1.52
2019-05-23T18:49:24.849Z,1.58
2019-05-23T18:54:31.221Z,1.58
2019-05-23T18:59:38.113Z,1.60
2019-05-23T19:04:44.613Z,1.68
2019-05-23T19:09:50.649Z,1.73
2019-05-23T19:14:56.690Z,1.99
2019-05-23T19:20:02.822Z,2.09
2019-05-23T19:25:08.815Z,2.37
2019-05-23T19:30:14.844Z,2.37
2019-05-23T19:35:20.929Z,1.84
2019-05-23T19:40:26.929Z,2.38
2019-05-23T19:45:32.967Z,3.27
2019-05-23T19:50:39.351Z,2.52
2019-05-23T19:55:45.391Z,2.27
2019-05-23T20:00:51.703Z,1.91
2019-05-23T20:05:57.653Z,2.55
2019-05-23T20:11:03.733Z,1.65
2019-05-23T20:16:10.208Z,1.93
2019-05-23T20:21:15.443Z,1.78
2019-05-23T20:26:21.536Z,1.76
2019-05-23T20:31:27.571Z,2.01
2019-05-23T20:36:33.568Z,3.52
2019-05-23T20:41:39.664Z,2.85
2019-05-23T20:46:45.776Z,3.24
2019-05-23T20:51:51.818Z,2.28
2019-05-23T20:56:57.961Z,2.14
2019-05-23T21:02:04.053Z,3.84
2019-05-23T21:07:10.094Z,2.33
2019-05-23T21:12:29.614Z,2.42
2019-05-23T21:17:21.685Z,3.61
2019-05-23T21:22:27.789Z,2.37
2019-05-23T21:27:33.830Z,2.60
2019-05-23T21:32:39.853Z,2.48
2019-05-23T21:37:45.878Z,2.68
2019-05-23T21:42:51.892Z,2.60
2019-05-23T21:47:57.890Z,2.63
2019-05-23T21:53:03.988Z,4.07
2019-05-23T21:58:09.970Z,2.52
2019-05-23T22:03:15.990Z,2.68
2019-05-23T22:08:22.064Z,2.61
2019-05-23T22:13:28.104Z,2.51
2019-05-23T22:18:34.109Z,2.71
2019-05-23T22:23:40.130Z,2.61
2019-05-23T22:28:46.135Z,3.77
2019-05-23T22:33:52.138Z,2.64
2019-05-23T22:38:58.112Z,2.57
2019-05-23T22:44:04.125Z,2.60
2019-05-23T22:49:10.213Z,3.81
2019-05-23T22:54:16.218Z,2.53
2019-05-23T22:59:22.232Z,2.58
2019-05-23T23:04:28.286Z,3.77
2019-05-23T23:09:34.303Z,3.92
2019-05-23T23:14:40.322Z,2.57
2019-05-23T23:19:46.319Z,2.33
2019-05-23T23:24:52.319Z,2.49
2019-05-23T23:29:58.306Z,3.68
2019-05-23T23:35:04.358Z,2.59
2019-05-23T23:40:10.571Z,4.02
2019-05-23T23:45:16.574Z,3.74
2019-05-23T23:50:22.580Z,2.59
2019-05-23T23:55:28.614Z,2.65
